Time;durP1;ratioP1;P1;durP2;ratioP2;P2;SDS_P1;SDS_P2;PMS_P1;PMS_P2;Temp;Humidity;BMP_temperature;BMP_pressure;BME280_temperature;BME280_humidity;BME280_pressure;Samples;Min_cycle;Max_cycle;Signal;HPM_P1;HPM_P2
2023/04/15 00:03:38;;;;;;;;;;;13.20;52.80;;;11.99;53.59;100155.78;12250984;19;20325;-82
2023/04/15 00:07:40;;;;;;;;;;;13.20;53.10;;;12.03;53.58;100151.16;12248881;19;19998;-82
2023/04/15 00:11:42;;;;;;;;;;;13.30;52.80;;;12.00;53.53;100141.75;12252385;19;19918;-82
2023/04/15 00:15:44;;;;;;;;;;;13.30;53.20;;;11.93;53.45;100143.94;12249029;19;19978;-81
2023/04/15 00:19:45;;;;;;;;;;;13.30;52.90;;;11.93;53.55;100136.09;12250307;19;20329;-82
2023/04/15 00:23:51;;;;;;;;;;;13.30;53.00;;;11.99;53.44;100150.56;12248622;19;19914;-82
2023/04/15 00:27:52;;;;;;;;;;;13.30;52.90;;;11.81;53.39;100123.03;12249661;19;19910;-83
2023/04/15 00:31:54;;;;;;;;;;;13.20;53.10;;;12.02;53.66;100154.75;12251967;19;19915;-82
2023/04/15 00:35:55;;;;;;;;;;;13.20;52.90;;;11.93;53.58;100143.13;12250867;19;19910;-82
2023/04/15 00:39:57;;;;;;;;;;;13.30;53.00;;;12.04;53.66;100152.84;12251042;19;19930;-82
2023/04/15 00:44:01;;;;;;;;;;;13.30;53.10;;;11.82;53.62;100122.06;12247225;19;19927;-82
2023/04/15 00:48:04;;;;;;;;;;;13.40;53.00;;;12.04;53.69;100152.84;12246550;19;20286;-83
2023/04/15 00:52:06;;;;;;;;;;;13.40;52.90;;;11.97;53.59;100133.28;12248701;19;19923;-84
2023/04/15 00:56:08;;;;;;;;;;;13.30;52.70;;;12.00;53.76;100139.13;12249624;19;19915;-84
2023/04/15 01:00:10;;;;;;;;;;;13.30;53.10;;;11.88;53.75;100117.31;12250134;19;19915;-84
2023/04/15 01:04:12;;;;;;;;;;;13.30;52.80;;;12.05;53.75;100141.44;12248926;19;19932;-83
2023/04/15 01:08:14;;;;;;;;;;;13.30;52.80;;;12.02;53.75;100125.97;12246309;19;19922;-83
2023/04/15 01:12:16;;;;;;;;;;;13.30;52.70;;;12.02;53.86;100128.56;12248813;19;20337;-84
2023/04/15 01:16:18;;;;;;;;;;;13.30;52.70;;;11.83;53.76;100092.38;12248634;19;19923;-84
2023/04/15 01:20:21;;;;;;;;;;;13.30;52.60;;;12.07;53.89;100127.31;12248355;19;20306;-84
2023/04/15 01:24:24;;;;;;;;;;;13.30;52.60;;;12.11;53.71;100141.00;12246439;19;19911;-83
2023/04/15 01:28:26;;;;;;;;;;;13.40;53.00;;;12.11;53.77;100138.38;12245158;19;19922;-83
2023/04/15 01:32:28;;;;;;;;;;;13.40;52.60;;;12.15;53.87;100139.81;12247337;19;19979;-83
2023/04/15 01:36:29;;;;;;;;;;;13.40;52.70;;;12.05;53.90;100118.72;12240606;19;20351;-83
2023/04/15 01:40:31;;;;;;;;;;;13.40;52.60;;;12.17;53.90;100140.56;12248475;19;19928;-83
2023/04/15 01:44:33;;;;;;;;;;;13.40;52.70;;;12.11;53.95;100127.91;12244970;19;19911;-84
2023/04/15 01:48:35;;;;;;;;;;;13.40;52.60;;;12.17;53.84;100133.53;12241663;19;20610;-83
2023/04/15 01:52:38;;;;;;;;;;;13.40;52.70;;;12.14;53.85;100128.50;12244100;19;19911;-84
2023/04/15 01:56:40;;;;;;;;;;;13.40;52.60;;;11.88;53.94;100079.81;12241903;19;19918;-83
2023/04/15 02:00:41;;;;;;;;;;;13.40;52.60;;;12.16;54.02;100125.81;12245403;19;19911;-84
2023/04/15 02:04:43;;;;;;;;;;;13.40;52.60;;;12.01;53.94;100098.94;12242387;19;20030;-83
2023/04/15 02:08:45;;;;;;;;;;;13.40;52.50;;;11.95;54.00;100094.97;12241327;19;19952;-84
2023/04/15 02:12:47;;;;;;;;;;;13.40;52.50;;;11.89;53.79;100086.72;12244503;19;19925;-83
2023/04/15 02:16:49;;;;;;;;;;;13.40;52.60;;;12.00;53.78;100101.66;12243150;19;19914;-83
2023/04/15 02:20:51;;;;;;;;;;;13.30;52.50;;;12.14;53.99;100127.69;12244240;19;20265;-83
2023/04/15 02:24:53;;;;;;;;;;;13.30;52.50;;;12.13;53.97;100131.25;12251122;19;20348;-83
2023/04/15 02:28:55;;;;;;;;;;;13.30;52.50;;;12.14;53.82;100135.53;12251525;19;19915;-84
2023/04/15 02:32:56;;;;;;;;;;;13.30;52.50;;;12.10;54.08;100128.88;12255630;19;20018;-83
2023/04/15 02:37:00;;;;;;;;;;;13.30;52.50;;;12.13;53.92;100128.63;12253708;19;19940;-84
2023/04/15 02:41:02;;;;;;;;;;;13.40;52.50;;;12.14;53.97;100132.91;12256186;19;19918;-83
2023/04/15 02:45:05;;;;;;;;;;;13.30;52.50;;;12.12;54.07;100121.72;12253201;19;20024;-83
2023/04/15 02:49:09;;;;;;;;;;;13.40;52.60;;;12.05;53.96;100107.41;12250985;19;19911;-83
2023/04/15 02:53:12;;;;;;;;;;;13.30;52.70;;;12.11;54.03;100127.91;12255088;19;20337;-84
2023/04/15 02:57:14;;;;;;;;;;;13.40;52.70;;;12.12;53.96;100124.34;12253096;19;19923;-83
2023/04/15 03:01:15;;;;;;;;;;;13.40;52.70;;;12.04;54.10;100116.19;12254489;19;19922;-83
2023/04/15 03:05:17;;;;;;;;;;;13.40;52.80;;;12.15;54.11;100138.06;12253237;19;19910;-83
2023/04/15 03:09:24;;;;;;;;;;;13.40;52.80;;;12.14;54.13;100135.53;12254789;19;19919;-84
2023/04/15 03:13:26;;;;;;;;;;;13.40;52.70;;;12.11;54.03;100133.97;12254620;19;19922;-84
2023/04/15 03:17:29;;;;;;;;;;;13.40;52.80;;;12.14;54.08;100138.97;12251275;19;19961;-84
2023/04/15 03:21:31;;;;;;;;;;;13.40;52.70;;;12.12;54.25;100130.44;12255076;19;19932;-83
2023/04/15 03:25:33;;;;;;;;;;;13.40;52.70;;;11.93;54.15;100099.47;12250843;19;19915;-84
2023/04/15 03:29:35;;;;;;;;;;;13.40;52.70;;;12.16;54.13;100136.28;12253914;19;19915;-83
2023/04/15 03:33:37;;;;;;;;;;;13.40;52.60;;;12.20;54.25;100140.31;12252896;19;19949;-83
2023/04/15 03:37:39;;;;;;;;;;;13.50;52.70;;;12.09;54.22;100114.09;12248606;19;19943;-84
2023/04/15 03:41:40;;;;;;;;;;;13.50;52.70;;;12.21;54.21;100139.41;12254825;19;19986;-83
2023/04/15 03:45:42;;;;;;;;;;;13.40;52.70;;;12.10;54.39;100126.25;12250165;19;19927;-83
2023/04/15 03:49:43;;;;;;;;;;;13.50;52.80;;;12.22;54.26;100143.69;12252180;19;19935;-84
2023/04/15 03:53:44;;;;;;;;;;;13.50;52.80;;;12.20;54.11;100139.50;12253193;19;19949;-83
2023/04/15 03:57:46;;;;;;;;;;;13.50;52.70;;;12.20;54.33;100140.31;12247670;19;19926;-84
2023/04/15 04:01:48;;;;;;;;;;;13.50;52.70;;;12.19;54.26;100136.03;12252653;19;19915;-83
2023/04/15 04:05:50;;;;;;;;;;;13.50;52.70;;;12.23;54.42;100150.56;12245372;19;19935;-84
2023/04/15 04:09:51;;;;;;;;;;;13.50;52.70;;;12.13;54.26;100142.56;12252818;19;19915;-83
2023/04/15 04:13:53;;;;;;;;;;;13.50;52.70;;;12.14;54.40;100138.97;12252043;19;19914;-83
2023/04/15 04:17:55;;;;;;;;;;;13.50;52.70;;;11.88;54.32;100095.50;12246211;19;20447;-84
2023/04/15 04:21:56;;;;;;;;;;;13.50;52.70;;;11.92;54.39;100096.97;12246777;19;19939;-84
2023/04/15 04:25:58;;;;;;;;;;;13.50;52.70;;;12.25;54.37;100146.06;12247195;19;19939;-84
2023/04/15 04:29:59;;;;;;;;;;;13.50;52.70;;;12.23;54.40;100139.28;12254419;19;19911;-82
2023/04/15 04:34:01;;;;;;;;;;;13.50;52.70;;;12.17;54.29;100136.16;12251157;19;19911;-83
2023/04/15 04:38:03;;;;;;;;;;;13.50;52.70;;;12.14;54.47;100140.78;12248440;19;19941;-83
2023/04/15 04:42:05;;;;;;;;;;;13.50;52.70;;;12.00;54.28;100115.59;12251837;19;19918;-83
2023/04/15 04:46:06;;;;;;;;;;;13.50;52.70;;;11.98;54.31;100119.25;12244236;19;19918;-83
2023/04/15 04:50:08;;;;;;;;;;;13.50;52.80;;;12.16;54.40;100154.59;12246299;19;19943;-82
2023/04/15 04:54:09;;;;;;;;;;;13.50;52.90;;;12.09;54.51;100151.56;12242611;19;19926;-83
2023/04/15 04:58:11;;;;;;;;;;;13.50;53.10;;;12.21;54.32;100168.19;12238632;19;19945;-83
2023/04/15 05:02:13;;;;;;;;;;;13.70;53.20;;;12.25;54.39;100179.28;12245434;19;19911;-83
2023/04/15 05:06:14;;;;;;;;;;;13.50;53.20;;;12.24;54.50;100167.97;12242980;19;19943;-82
2023/04/15 05:10:17;;;;;;;;;;;13.50;53.20;;;12.24;54.40;100173.22;12243156;19;20252;-83
2023/04/15 05:14:18;;;;;;;;;;;13.50;53.50;;;12.06;54.44;100157.00;12248828;19;19918;-82
2023/04/15 05:18:20;;;;;;;;;;;13.50;54.40;;;12.24;54.31;100183.69;12244826;19;20317;-83
2023/04/15 05:22:22;;;;;;;;;;;13.50;55.70;;;12.25;54.53;100193.19;12249028;19;19918;-83
2023/04/15 05:26:23;;;;;;;;;;;13.50;54.60;;;12.24;54.53;100183.69;12244212;19;19927;-83
2023/04/15 05:30:25;;;;;;;;;;;13.50;53.90;;;12.03;54.47;100146.78;12246997;19;19918;-83
2023/04/15 05:34:27;;;;;;;;;;;13.60;53.90;;;12.09;54.66;100155.97;12248727;19;20253;-83
2023/04/15 05:38:29;;;;;;;;;;;13.50;54.40;;;12.04;54.65;100153.66;12243055;19;19923;-83
2023/04/15 05:42:30;;;;;;;;;;;13.60;53.80;;;12.25;54.70;100172.25;12248325;19;19995;-84
2023/04/15 05:46:32;;;;;;;;;;;13.60;54.20;;;12.20;54.68;100176.13;12242016;19;19915;-84
2023/04/15 05:50:34;;;;;;;;;;;13.60;55.40;;;12.26;54.63;100184.41;12248456;19;19915;-85
2023/04/15 05:54:36;;;;;;;;;;;13.60;55.00;;;12.15;54.58;100150.28;12247104;19;20359;-86
2023/04/15 05:58:38;;;;;;;;;;;13.60;54.40;;;12.20;54.80;100163.88;12250643;19;20508;-86
2023/04/15 06:02:39;;;;;;;;;;;13.60;54.10;;;12.29;54.65;100184.19;12254053;19;19928;-85
2023/04/15 06:06:41;;;;;;;;;;;13.60;54.60;;;12.35;54.63;100182.91;12254378;19;19962;-86
2023/04/15 06:10:42;;;;;;;;;;;13.60;54.30;;;12.09;54.81;100148.09;12259785;19;19929;-86
2023/04/15 06:14:44;;;;;;;;;;;13.60;53.90;;;12.31;54.85;100181.44;12258663;19;20321;-85
2023/04/15 06:18:46;;;;;;;;;;;13.70;53.50;;;12.27;54.94;100174.78;12253699;19;19914;-86
2023/04/15 06:22:47;;;;;;;;;;;13.80;54.60;;;12.40;54.90;100201.75;12259431;19;19927;-85
2023/04/15 06:26:49;;;;;;;;;;;13.70;55.20;;;12.31;55.04;100190.16;12251750;19;19923;-88
2023/04/15 06:30:52;;;;;;;;;;;13.70;54.30;;;12.36;55.19;100201.13;12258797;19;20610;-86
2023/04/15 06:34:54;;;;;;;;;;;13.70;55.10;;;12.45;54.97;100217.97;12256055;19;19935;-86
2023/04/15 06:38:55;;;;;;;;;;;13.70;54.50;;;12.34;55.06;100200.41;12253738;19;19918;-87
2023/04/15 06:42:57;;;;;;;;;;;13.80;54.40;;;12.49;54.93;100218.59;12260558;19;19922;-85
2023/04/15 06:46:59;;;;;;;;;;;13.80;53.60;;;12.25;55.00;100176.66;12253691;19;20348;-87
2023/04/15 06:51:00;;;;;;;;;;;13.80;53.30;;;12.52;55.29;100224.44;12254647;19;20333;-87
2023/04/15 06:55:02;;;;;;;;;;;13.80;54.00;;;12.51;54.99;100235.03;12256499;19;19919;-86
2023/04/15 06:59:05;;;;;;;;;;;13.90;54.20;;;12.60;55.02;100237.00;12253266;19;19930;-85
2023/04/15 07:03:09;;;;;;;;;;;13.90;53.90;;;12.51;55.08;100227.19;12259139;19;19929;-85
2023/04/15 07:07:11;;;;;;;;;;;13.90;54.00;;;12.67;55.11;100251.34;12255170;19;19915;-85
2023/04/15 07:11:13;;;;;;;;;;;13.90;54.00;;;12.58;55.16;100244.97;12255735;19;19914;-86
2023/04/15 07:15:14;;;;;;;;;;;14.00;54.00;;;12.69;55.18;100262.53;12260874;19;19907;-84
2023/04/15 07:19:16;;;;;;;;;;;14.00;54.10;;;12.72;55.00;100269.31;12254019;19;19935;-84
2023/04/15 07:23:17;;;;;;;;;;;14.00;53.90;;;12.65;54.99;100258.47;12257744;19;19947;-85
2023/04/15 07:27:18;;;;;;;;;;;14.00;54.10;;;12.68;55.21;100273.94;12259656;19;19926;-84
2023/04/15 07:31:20;;;;;;;;;;;14.00;54.20;;;12.59;55.17;100253.66;12258886;19;19917;-85
2023/04/15 07:35:22;;;;;;;;;;;14.00;54.90;;;12.57;55.17;100256.38;12255482;19;19922;-85
2023/04/15 07:39:24;;;;;;;;;;;14.00;54.90;;;12.45;55.30;100236.31;12255235;19;19989;-84
2023/04/15 07:43:26;;;;;;;;;;;14.00;54.40;;;12.68;55.16;100267.88;12254944;19;19974;-86
2023/04/15 07:47:27;;;;;;;;;;;13.90;54.30;;;12.59;55.31;100259.72;12255154;19;19911;-85
2023/04/15 07:51:29;;;;;;;;;;;14.00;54.20;;;12.57;55.10;100255.53;12259407;19;19935;-84
2023/04/15 07:55:31;;;;;;;;;;;14.00;54.10;;;12.39;55.21;100228.88;12259367;19;20262;-85
2023/04/15 07:59:32;;;;;;;;;;;13.90;54.50;;;12.39;55.13;100232.34;12258303;19;19918;-85
2023/04/15 08:03:34;;;;;;;;;;;13.90;54.50;;;12.59;55.28;100277.25;12261007;19;19911;-84
2023/04/15 08:07:37;;;;;;;;;;;14.00;54.60;;;12.69;55.27;100287.88;12255091;19;20278;-85
2023/04/15 08:11:39;;;;;;;;;;;14.00;54.10;;;12.58;55.30;100284.25;12258268;19;20343;-84
2023/04/15 08:15:41;;;;;;;;;;;14.00;54.50;;;12.65;55.41;100292.50;12257443;19;19987;-84
2023/04/15 08:19:42;;;;;;;;;;;13.90;54.20;;;12.66;55.25;100286.31;12260504;19;19910;-85
2023/04/15 08:23:45;;;;;;;;;;;13.90;54.10;;;12.45;55.25;100262.50;12259731;19;20333;-85
2023/04/15 08:27:47;;;;;;;;;;;13.90;54.10;;;12.68;55.57;100299.31;12253586;19;19919;-85
2023/04/15 08:31:48;;;;;;;;;;;14.00;54.90;;;12.54;55.33;100269.69;12252062;19;19976;-85
2023/04/15 08:35:50;;;;;;;;;;;14.00;54.70;;;12.71;55.25;100305.16;12248879;19;19927;-84
2023/04/15 08:39:51;;;;;;;;;;;14.00;54.50;;;12.76;55.39;100307.47;12251070;19;19915;-84
2023/04/15 08:44:00;;;;;;;;;;;14.00;54.50;;;12.64;55.36;100283.00;12248007;19;20208;-85
2023/04/15 08:48:03;;;;;;;;;;;14.00;55.00;;;12.68;55.13;100297.53;12249592;19;19922;-85
2023/04/15 08:52:06;;;;;;;;;;;14.00;55.10;;;12.69;55.25;100299.22;12251805;19;19926;-85
2023/04/15 08:56:09;;;;;;;;;;;14.00;55.90;;;12.70;55.36;100300.88;12251626;19;20329;-84
2023/04/15 09:00:11;;;;;;;;;;;14.00;55.30;;;12.65;55.43;100294.31;12251536;19;19915;-85
2023/04/15 09:04:13;;;;;;;;;;;14.00;55.40;;;12.71;55.39;100307.78;12248946;19;22605;-85
2023/04/15 09:08:15;;;;;;;;;;;14.00;55.30;;;12.68;55.47;100300.16;12249200;19;19925;-85
2023/04/15 09:12:16;;;;;;;;;;;14.00;55.10;;;12.72;55.39;100298.13;12254533;19;19974;-85
2023/04/15 09:16:18;;;;;;;;;;;14.00;55.70;;;12.71;55.41;100294.69;12248709;19;19951;-85
2023/04/15 09:20:20;;;;;;;;;;;14.00;55.70;;;12.63;55.59;100291.78;12253211;19;19914;-84
2023/04/15 09:24:22;;;;;;;;;;;14.10;55.40;;;12.78;55.51;100316.91;12252955;19;19943;-85
2023/04/15 09:28:27;;;;;;;;;;;14.10;55.00;;;12.84;55.53;100326.94;12249778;19;19949;-84
2023/04/15 09:32:28;;;;;;;;;;;14.10;55.50;;;12.52;55.52;100284.69;12248464;19;19919;-85
2023/04/15 09:36:46;;;;;;;;;;;14.10;54.80;;;12.88;55.68;100340.69;12247215;19;20329;-84
2023/04/15 09:40:47;;;;;;;;;;;14.10;55.00;;;12.90;55.53;100340.56;12246939;19;19927;-84
2023/04/15 09:44:51;;;;;;;;;;;14.10;55.00;;;12.83;55.51;100332.31;12248496;19;19947;-85
2023/04/15 09:49:07;;;;;;;;;;;14.20;55.00;;;12.92;55.49;100344.75;12242590;19;19918;-85
2023/04/15 09:53:11;;;;;;;;;;;14.20;55.50;;;12.91;55.62;100343.06;12247884;19;19975;-85
2023/04/15 09:57:12;;;;;;;;;;;14.20;55.40;;;12.65;55.69;100308.22;12246887;19;19911;-86
2023/04/15 10:01:14;;;;;;;;;;;14.30;55.10;;;12.88;55.66;100347.69;12248829;19;19926;-84
2023/04/15 10:05:16;;;;;;;;;;;14.20;55.30;;;12.89;55.73;100354.63;12245198;19;20341;-85
2023/04/15 10:09:18;;;;;;;;;;;14.30;54.80;;;12.98;55.68;100361.81;12241741;19;19939;-84
2023/04/15 10:13:22;;;;;;;;;;;14.30;55.30;;;12.97;55.70;100357.53;12244657;19;19922;-85
2023/04/15 10:17:26;;;;;;;;;;;14.30;55.00;;;12.92;55.58;100351.78;12244573;19;19957;-85
2023/04/15 10:21:29;;;;;;;;;;;14.30;55.10;;;13.01;55.88;100369.44;12244767;19;20377;-85
2023/04/15 10:25:32;;;;;;;;;;;14.30;55.70;;;12.94;55.81;100352.50;12241453;19;19922;-86
2023/04/15 10:29:33;;;;;;;;;;;14.30;55.60;;;12.84;55.70;100336.59;12245704;19;20329;-84
2023/04/15 10:33:35;;;;;;;;;;;14.30;55.50;;;12.90;55.72;100349.25;12244489;19;19986;-85
2023/04/15 10:37:37;;;;;;;;;;;14.30;55.90;;;13.02;55.83;100371.16;12243366;19;19907;-88
2023/04/15 10:41:39;;;;;;;;;;;14.30;56.20;;;12.94;55.83;100358.59;12242975;19;19919;-85
2023/04/15 10:45:43;;;;;;;;;;;14.30;55.40;;;12.93;55.82;100351.66;12249361;19;19911;-85
2023/04/15 10:49:49;;;;;;;;;;;14.30;55.80;;;12.99;56.06;100371.38;12257193;19;20336;-86
2023/04/15 10:53:55;;;;;;;;;;;14.30;56.00;;;13.05;55.91;100386.66;12256583;19;20375;-85
2023/04/15 10:58:01;;;;;;;;;;;14.30;56.10;;;13.11;55.92;100390.63;12252993;19;19945;-86
2023/04/15 11:02:06;;;;;;;;;;;14.40;55.60;;;13.10;55.96;100386.34;12258854;19;19925;-85
2023/04/15 11:06:08;;;;;;;;;;;14.40;55.50;;;13.10;55.88;100388.94;12254926;19;20304;-86
2023/04/15 11:10:13;;;;;;;;;;;14.40;56.00;;;13.17;55.84;100403.28;12255164;19;19915;-86
2023/04/15 11:14:18;;;;;;;;;;;14.40;55.70;;;12.89;56.00;100359.84;12256452;19;20555;-86
2023/04/15 11:18:22;;;;;;;;;;;14.40;56.40;;;13.17;55.97;100404.13;12250178;19;19953;-85
2023/04/15 11:22:23;;;;;;;;;;;14.40;55.80;;;13.23;56.03;100421.19;12253315;19;19994;-86
2023/04/15 11:26:26;;;;;;;;;;;14.50;55.90;;;13.15;55.84;100408.66;12249702;19;19915;-85
2023/04/15 11:30:33;;;;;;;;;;;14.40;55.50;;;13.26;56.01;100424.47;12253900;19;19911;-85
2023/04/15 11:34:35;;;;;;;;;;;14.50;55.90;;;13.24;55.86;100420.25;12258141;19;20349;-87
2023/04/15 11:38:41;;;;;;;;;;;14.50;56.00;;;13.27;55.88;100426.16;12255867;19;19941;-85
2023/04/15 11:42:43;;;;;;;;;;;14.50;56.00;;;13.04;55.95;100395.44;12258306;19;19926;-85
2023/04/15 11:46:45;;;;;;;;;;;14.50;56.00;;;13.33;56.08;100439.78;12255728;19;19915;-86
2023/04/15 11:50:52;;;;;;;;;;;14.50;56.00;;;13.24;56.07;100428.97;12259291;19;19915;-85
2023/04/15 11:55:02;;;;;;;;;;;14.50;55.70;;;13.36;56.15;100447.41;12259677;19;19907;-85
2023/04/15 11:59:04;;;;;;;;;;;14.60;55.70;;;13.37;56.13;100444.69;12252751;19;19923;-86
2023/04/15 12:03:23;;;;;;;;;;;14.60;56.00;;;13.45;56.00;100452.03;12258115;19;19926;-85
2023/04/15 12:07:25;;;;;;;;;;;14.60;56.00;;;13.41;55.99;100450.56;12253932;19;19915;-86
2023/04/15 12:11:27;;;;;;;;;;;14.60;55.70;;;13.47;55.93;100458.84;12255133;19;19919;-86
2023/04/15 12:15:28;;;;;;;;;;;14.70;55.80;;;13.44;55.93;100450.34;12258273;19;20162;-85
2023/04/15 12:19:38;;;;;;;;;;;14.70;56.10;;;13.21;55.94;100423.09;12254996;19;20308;-85
2023/04/15 12:23:49;;;;;;;;;;;14.70;55.80;;;13.45;56.10;100454.66;12255979;19;19938;-85
2023/04/15 12:27:51;;;;;;;;;;;14.70;55.80;;;13.46;56.06;100456.31;12252364;19;19927;-84
2023/04/15 12:32:07;;;;;;;;;;;14.70;55.80;;;13.41;56.12;100455.81;12257202;19;19911;-86
2023/04/15 12:36:09;;;;;;;;;;;14.80;56.10;;;13.52;56.14;100473.41;12257476;19;20426;-86
2023/04/15 12:40:10;;;;;;;;;;;14.80;55.90;;;13.35;56.05;100435.25;12261948;19;19929;-86
2023/04/15 12:44:12;;;;;;;;;;;14.80;56.10;;;13.59;56.09;100477.25;12261145;19;20261;-86
2023/04/15 12:48:14;;;;;;;;;;;14.80;55.90;;;13.65;56.10;100490.75;12255703;19;19922;-86
2023/04/15 12:52:15;;;;;;;;;;;14.90;55.90;;;13.62;56.20;100484.91;12257150;19;19919;-86
2023/04/15 12:56:17;;;;;;;;;;;14.90;56.20;;;13.65;56.10;100493.38;12257361;19;19987;-86
2023/04/15 13:00:18;;;;;;;;;;;14.90;56.30;;;13.70;56.21;100499.16;12257285;19;19918;-86
2023/04/15 13:04:20;;;;;;;;;;;14.90;56.70;;;13.62;56.24;100484.91;12256090;19;19922;-85
2023/04/15 13:08:22;;;;;;;;;;;14.90;56.20;;;13.77;56.25;100503.94;12256272;19;19947;-87
2023/04/15 13:12:23;;;;;;;;;;;14.90;56.30;;;13.72;56.18;100496.44;12270492;19;19923;-86
2023/04/15 13:16:25;;;;;;;;;;;15.00;56.30;;;13.71;56.31;100489.47;12267944;19;19911;-86
2023/04/15 13:20:27;;;;;;;;;;;15.00;55.90;;;13.51;56.29;100456.81;12264376;19;21094;-87
2023/04/15 13:24:28;;;;;;;;;;;15.00;55.90;;;13.75;56.25;100493.59;12265697;19;19931;-86
2023/04/15 13:28:30;;;;;;;;;;;15.10;55.60;;;13.67;56.34;100481.00;12261244;19;20230;-86
2023/04/15 13:32:32;;;;;;;;;;;15.10;56.00;;;13.78;56.24;100495.16;12262170;19;19907;-86
2023/04/15 13:36:33;;;;;;;;;;;15.10;56.20;;;13.78;56.21;100484.66;12261725;19;19927;-86
2023/04/15 13:40:35;;;;;;;;;;;15.20;55.60;;;13.99;56.38;100530.34;12258195;19;19911;-86
2023/04/15 13:44:38;;;;;;;;;;;15.20;55.90;;;13.99;56.33;100524.22;12262357;19;20310;-84
2023/04/15 13:48:40;;;;;;;;;;;15.30;56.10;;;13.75;56.37;100495.38;12256059;19;19971;-86
2023/04/15 13:52:41;;;;;;;;;;;15.30;56.40;;;13.97;56.36;100528.78;12255970;19;20281;-86
2023/04/15 13:56:43;;;;;;;;;;;15.20;55.90;;;14.08;56.29;100544.59;12254328;19;19915;-86
2023/04/15 14:00:45;;;;;;;;;;;15.30;56.00;;;13.85;56.34;100514.72;12253602;19;20336;-86
2023/04/15 14:04:46;;;;;;;;;;;15.30;55.70;;;14.06;56.40;100541.22;12250044;19;19911;-86
2023/04/15 14:08:48;;;;;;;;;;;15.30;55.60;;;14.03;56.45;100546.69;12248654;19;19923;-86
2023/04/15 14:12:49;;;;;;;;;;;15.40;55.90;;;14.06;56.34;100549.94;12248594;19;20436;-85
2023/04/15 14:16:51;;;;;;;;;;;15.40;55.70;;;14.02;56.45;100545.88;12247872;19;20323;-86
2023/04/15 14:20:52;;;;;;;;;;;15.30;55.10;;;13.85;56.49;100533.09;12257295;19;19918;-86
2023/04/15 14:24:54;;;;;;;;;;;15.40;55.80;;;13.98;56.49;100552.28;12260483;19;20260;-86
2023/04/15 14:28:55;;;;;;;;;;;15.30;55.60;;;13.99;56.44;100559.22;12257870;19;19921;-86
2023/04/15 14:32:57;;;;;;;;;;;15.30;55.40;;;14.05;56.47;100569.28;12260933;19;19938;-86
2023/04/15 14:36:58;;;;;;;;;;;15.40;55.60;;;14.01;56.50;100565.19;12261201;19;20325;-86
2023/04/15 14:41:00;;;;;;;;;;;15.40;55.70;;;13.90;56.57;100552.81;12260743;19;19922;-86
2023/04/15 14:45:01;;;;;;;;;;;15.40;56.40;;;14.06;56.48;100588.47;12258433;19;20396;-86
2023/04/15 14:49:03;;;;;;;;;;;15.40;56.00;;;14.11;56.54;100597.72;12254881;19;19923;-86
2023/04/15 14:53:04;;;;;;;;;;;15.40;56.40;;;14.10;56.60;100593.41;12261395;19;19986;-86
2023/04/15 14:57:06;;;;;;;;;;;15.40;55.80;;;14.06;56.51;100583.22;12260098;19;19915;-86
2023/04/15 15:01:07;;;;;;;;;;;15.40;55.60;;;14.13;56.55;100603.69;12262548;19;19926;-86
2023/04/15 15:05:10;;;;;;;;;;;15.40;55.60;;;13.86;56.51;100563.69;12258827;19;19921;-86
2023/04/15 15:09:11;;;;;;;;;;;15.40;55.40;;;13.91;56.62;100578.16;12255589;19;19922;-86
2023/04/15 15:13:13;;;;;;;;;;;15.40;55.40;;;13.79;56.62;100554.56;12259266;19;20286;-86
2023/04/15 15:17:14;;;;;;;;;;;15.40;55.30;;;14.13;56.76;100619.44;12257341;19;19934;-86
2023/04/15 15:21:16;;;;;;;;;;;15.40;55.50;;;14.22;56.65;100614.47;12258049;19;19922;-87
2023/04/15 15:25:17;;;;;;;;;;;15.40;55.80;;;14.27;56.63;100623.69;12259748;19;19919;-88
2023/04/15 15:29:18;;;;;;;;;;;15.50;55.60;;;14.16;56.62;100600.84;12252971;19;19935;-85
2023/04/15 15:33:20;;;;;;;;;;;15.50;55.60;;;14.25;56.64;100614.25;12256495;19;19915;-87
2023/04/15 15:37:21;;;;;;;;;;;15.50;55.50;;;14.37;56.61;100637.03;12251342;19;19923;-86
2023/04/15 15:41:24;;;;;;;;;;;15.60;55.70;;;14.28;56.59;100620.13;12257837;19;19911;-87
2023/04/15 15:45:26;;;;;;;;;;;15.60;55.20;;;14.26;56.59;100615.94;12254018;19;19943;-87
2023/04/15 15:49:27;;;;;;;;;;;15.60;55.50;;;14.38;56.74;100636.06;12255738;19;19937;-87
2023/04/15 15:53:29;;;;;;;;;;;15.60;55.60;;;14.33;56.68;100638.19;12254340;19;20264;-87
2023/04/15 15:57:30;;;;;;;;;;;15.60;55.70;;;14.32;56.68;100641.78;12255226;19;19943;-87
2023/04/15 16:01:34;;;;;;;;;;;15.60;55.40;;;14.02;56.68;100594.91;12255595;19;20264;-88
2023/04/15 16:05:36;;;;;;;;;;;15.60;55.90;;;14.32;56.60;100647.84;12257865;19;19919;-85
2023/04/15 16:09:39;;;;;;;;;;;15.60;55.60;;;14.44;56.67;100666.31;12257172;19;19935;-86
2023/04/15 16:13:41;;;;;;;;;;;15.60;55.40;;;14.35;56.71;100652.88;12257001;19;19930;-86
2023/04/15 16:17:42;;;;;;;;;;;15.60;55.50;;;14.44;56.61;100671.56;12257094;19;19946;-86
2023/04/15 16:21:43;;;;;;;;;;;15.70;55.50;;;14.41;56.38;100674.41;12255832;19;19915;-86
2023/04/15 16:25:45;;;;;;;;;;;15.60;55.50;;;14.35;56.71;100662.56;12253007;19;19930;-86
2023/04/15 16:29:49;;;;;;;;;;;15.70;55.50;;;14.48;56.69;100686.16;12253312;19;20333;-86
2023/04/15 16:33:50;;;;;;;;;;;15.70;55.70;;;14.42;56.76;100678.72;12258806;19;19978;-86
2023/04/15 16:37:52;;;;;;;;;;;15.70;55.50;;;14.37;56.66;100671.19;12251388;19;19918;-86
2023/04/15 16:41:56;;;;;;;;;;;15.70;55.30;;;14.42;56.80;100689.22;12258195;19;20370;-86
2023/04/15 16:45:57;;;;;;;;;;;15.70;55.40;;;14.36;56.58;100680.00;12254082;19;19914;-86
2023/04/15 16:49:59;;;;;;;;;;;15.70;55.30;;;14.44;56.58;100698.66;12257745;19;20333;-86
2023/04/15 16:54:00;;;;;;;;;;;15.70;55.40;;;14.43;56.68;100706.69;12258544;19;19915;-86
2023/04/15 16:58:02;;;;;;;;;;;15.70;55.50;;;14.42;56.74;100704.97;12253092;19;19926;-86
2023/04/15 17:02:03;;;;;;;;;;;15.60;55.50;;;14.31;56.70;100692.59;12254940;19;19919;-86
2023/04/15 17:06:04;;;;;;;;;;;15.70;55.50;;;14.48;56.74;100721.16;12252693;19;19938;-86
2023/04/15 17:10:07;;;;;;;;;;;15.70;55.50;;;14.46;56.79;100717.78;12254133;19;19923;-85
2023/04/15 17:14:09;;;;;;;;;;;15.70;55.60;;;14.31;56.62;100693.47;12254154;19;20279;-86
2023/04/15 17:18:10;;;;;;;;;;;15.70;55.50;;;14.44;56.77;100724.94;12251253;19;19923;-86
2023/04/15 17:22:12;;;;;;;;;;;15.70;55.50;;;14.42;56.58;100721.59;12254393;19;19921;-87
2023/04/15 17:26:13;;;;;;;;;;;15.70;55.30;;;14.47;56.72;100740.47;12252539;19;19919;-85
2023/04/15 17:30:15;;;;;;;;;;;15.70;55.80;;;14.42;56.75;100737.38;12253145;19;19915;-86
2023/04/15 17:34:17;;;;;;;;;;;15.70;55.50;;;14.35;56.75;100728.25;12249480;19;19919;-86
2023/04/15 17:38:18;;;;;;;;;;;15.70;55.50;;;14.37;56.77;100734.22;12247055;19;19922;-86
2023/04/15 17:42:21;;;;;;;;;;;15.60;55.40;;;14.48;56.63;100771.09;12244744;19;19930;-86
2023/04/15 17:46:22;;;;;;;;;;;15.70;55.70;;;14.43;56.76;100761.84;12244582;19;20352;-86
2023/04/15 17:50:24;;;;;;;;;;;15.70;55.50;;;14.44;56.72;100766.97;12246186;19;19947;-84
2023/04/15 17:54:26;;;;;;;;;;;15.70;55.50;;;14.35;56.72;100762.38;12251596;19;19967;-83
2023/04/15 17:58:28;;;;;;;;;;;15.60;55.40;;;14.39;56.74;100766.47;12253242;19;19915;-84
2023/04/15 18:02:29;;;;;;;;;;;15.60;55.40;;;14.42;56.71;100775.91;12259884;19;19915;-84
2023/04/15 18:06:31;;;;;;;;;;;15.60;55.40;;;14.36;56.54;100769.31;12254317;19;19939;-84
2023/04/15 18:10:33;;;;;;;;;;;15.60;55.40;;;14.35;56.69;100773.72;12256530;19;19917;-84